createdAt,value
2023-05-05T00:02:23.841Z,96700.03
2023-05-05T00:04:50.450Z,96695.91
2023-05-05T00:07:16.969Z,96708.97
2023-05-05T00:09:43.296Z,96703.50
2023-05-05T00:12:10.015Z,96710.31
2023-05-05T00:14:36.372Z,96714.97
2023-05-05T00:17:04.029Z,96711.34
2023-05-05T00:19:30.748Z,96728.19
2023-05-05T00:21:57.083Z,96721.34
2023-05-05T00:24:23.509Z,96727.38
2023-05-05T00:26:51.026Z,96732.47
2023-05-05T00:29:17.413Z,96735.75
2023-05-05T00:31:44.128Z,96732.03
2023-05-05T00:34:11.012Z,96740.28
2023-05-05T00:36:37.414Z,96747.41
2023-05-05T00:39:04.243Z,96750.44
2023-05-05T00:41:30.727Z,96750.22
2023-05-05T00:43:57.123Z,96754.59
2023-05-05T00:46:29.635Z,96759.59
2023-05-05T00:48:57.321Z,96765.25
2023-05-05T00:51:24.320Z,96765.25
2023-05-05T00:53:51.592Z,96764.22
2023-05-05T00:56:19.576Z,96767.06
2023-05-05T00:58:46.681Z,96771.88
2023-05-05T01:01:14.159Z,96774.50
2023-05-05T01:03:41.545Z,96765.31
2023-05-05T01:06:21.115Z,96771.31
2023-05-05T01:09:09.036Z,96776.63
2023-05-05T01:11:49.735Z,96786.09
2023-05-05T01:14:19.205Z,96787.09
2023-05-05T01:16:53.255Z,96795.31
2023-05-05T01:19:25.553Z,96796.47
2023-05-05T01:21:57.498Z,96801.75
2023-05-05T01:24:43.928Z,96801.41
2023-05-05T01:27:55.969Z,96807.03
2023-05-05T01:30:44.014Z,96809.13
2023-05-05T01:33:14.696Z,96813.88
2023-05-05T01:35:45.784Z,96813.38
2023-05-05T01:38:17.997Z,96821.00
2023-05-05T01:40:51.499Z,96826.66
2023-05-05T01:43:21.761Z,96829.16
2023-05-05T01:45:49.512Z,96832.31
2023-05-05T01:48:19.717Z,96848.97
2023-05-05T01:50:48.789Z,96853.72
2023-05-05T01:53:17.463Z,96850.09
2023-05-05T01:55:46.153Z,96861.97
2023-05-05T01:58:14.646Z,96860.66
2023-05-05T02:00:42.669Z,96865.44
2023-05-05T02:03:11.002Z,96864.00
2023-05-05T02:05:40.154Z,96870.59
2023-05-05T02:08:08.778Z,96866.34
2023-05-05T02:10:38.022Z,96880.84
2023-05-05T02:13:05.377Z,96902.66
2023-05-05T02:15:34.143Z,96902.66
2023-05-05T02:18:02.017Z,96903.13
2023-05-05T02:20:31.573Z,96904.78
2023-05-05T02:22:59.560Z,96909.88
2023-05-05T02:25:32.290Z,96926.03
2023-05-05T02:28:01.418Z,96921.56
2023-05-05T02:30:30.727Z,96922.09
2023-05-05T02:33:04.948Z,96931.31
2023-05-05T02:35:37.778Z,96941.22
2023-05-05T02:38:06.685Z,96942.88
2023-05-05T02:40:34.704Z,96941.56
2023-05-05T02:43:05.634Z,96947.16
2023-05-05T02:45:32.614Z,96915.16
2023-05-05T02:48:04.026Z,96920.13
2023-05-05T02:50:34.062Z,96910.19
2023-05-05T02:53:00.979Z,96930.00
2023-05-05T02:55:52.260Z,96935.47
2023-05-05T02:58:29.013Z,96944.38
2023-05-05T03:00:58.442Z,96941.78
2023-05-05T03:03:36.984Z,96942.94
2023-05-05T03:06:19.079Z,96949.06
2023-05-05T03:09:14.676Z,96954.16
2023-05-05T03:11:49.612Z,96957.81
2023-05-05T03:14:19.491Z,96969.03
2023-05-05T03:16:47.477Z,96977.59
2023-05-05T03:19:17.712Z,96981.56
2023-05-05T03:21:44.960Z,96996.06
2023-05-05T03:24:16.018Z,97002.34
2023-05-05T03:26:43.134Z,97007.25
2023-05-05T03:29:09.886Z,97005.13
2023-05-05T03:31:36.791Z,97008.88
2023-05-05T03:34:03.337Z,97017.31
2023-05-05T03:36:30.842Z,97019.44
2023-05-05T03:38:58.569Z,97031.31
2023-05-05T03:41:25.770Z,97028.53
2023-05-05T03:43:52.141Z,97027.72
2023-05-05T03:46:18.896Z,97028.22
2023-05-05T03:48:46.027Z,97029.38
2023-05-05T03:51:12.961Z,97042.22
2023-05-05T03:53:39.694Z,97049.97
2023-05-05T03:56:06.195Z,97056.94
2023-05-05T03:58:32.731Z,97064.34
2023-05-05T04:00:59.579Z,97061.06
2023-05-05T04:03:26.081Z,97060.69
2023-05-05T04:05:52.582Z,97070.25
2023-05-05T04:08:19.304Z,97076.06
2023-05-05T04:10:45.789Z,97092.88
2023-05-05T04:13:13.692Z,97091.38
2023-05-05T04:15:47.468Z,97092.06
2023-05-05T04:18:14.020Z,97101.28
2023-05-05T04:20:40.422Z,97115.78
2023-05-05T04:23:08.155Z,97117.44
2023-05-05T04:25:34.570Z,97112.16
2023-05-05T04:28:01.065Z,97103.91
2023-05-05T04:30:27.873Z,97114.66
2023-05-05T04:32:54.255Z,97110.34
2023-05-05T04:35:20.790Z,97104.25
2023-05-05T04:37:47.591Z,97103.56
2023-05-05T04:40:13.946Z,97104.72
2023-05-05T04:42:40.384Z,97099.25
2023-05-05T04:45:08.906Z,97096.25
2023-05-05T04:47:39.141Z,97089.94
2023-05-05T04:50:07.138Z,97078.69
2023-05-05T04:52:34.162Z,97062.75
2023-05-05T04:55:01.083Z,97052.09
2023-05-05T04:57:27.477Z,97055.06
2023-05-05T04:59:54.177Z,97046.38
2023-05-05T05:02:20.969Z,97047.44
2023-05-05T05:04:47.395Z,97037.94
2023-05-05T05:07:15.339Z,97025.50
2023-05-05T05:09:41.724Z,97016.84
2023-05-05T05:12:09.573Z,97003.41
2023-05-05T05:14:39.881Z,96995.44
2023-05-05T05:17:06.688Z,96972.53
2023-05-05T05:19:33.057Z,96943.19
2023-05-05T05:21:59.682Z,96888.41
2023-05-05T05:24:26.168Z,96818.53
2023-05-05T05:26:53.021Z,96786.41
2023-05-05T05:29:20.308Z,96746.47
2023-05-05T05:31:46.743Z,96734.09
2023-05-05T05:34:13.465Z,96715.72
2023-05-05T05:36:39.805Z,96696.50
2023-05-05T05:39:06.302Z,96684.00
2023-05-05T05:41:33.137Z,96673.91
2023-05-05T05:43:59.494Z,96653.88
2023-05-05T05:46:25.851Z,96640.50
2023-05-05T05:48:52.806Z,96634.66
2023-05-05T05:51:19.211Z,96621.03
2023-05-05T05:53:45.544Z,96593.19
2023-05-05T05:56:12.310Z,96587.13
2023-05-05T05:58:38.948Z,96588.09
2023-05-05T06:01:05.830Z,96592.72
2023-05-05T06:03:32.352Z,96597.19
2023-05-05T06:05:59.142Z,96610.34
2023-05-05T06:08:26.870Z,96618.72
2023-05-05T06:10:53.293Z,96621.38
2023-05-05T06:13:19.826Z,96632.81
2023-05-05T06:15:46.557Z,96640.47
2023-05-05T06:18:13.006Z,96649.81
2023-05-05T06:20:39.457Z,96650.50
2023-05-05T06:23:06.475Z,96666.28
2023-05-05T06:25:32.832Z,96661.81
2023-05-05T06:27:59.940Z,96669.38
2023-05-05T06:30:26.857Z,96670.84
2023-05-05T06:32:54.254Z,96670.50
2023-05-05T06:35:22.636Z,96666.22
2023-05-05T06:37:49.039Z,96652.41
2023-05-05T06:40:15.568Z,96664.31
2023-05-05T06:42:42.254Z,96663.38
2023-05-05T06:45:09.130Z,96632.28
2023-05-05T06:47:35.890Z,96584.22
2023-05-05T06:50:02.789Z,96564.78
2023-05-05T06:52:29.230Z,96504.78
2023-05-05T06:54:55.919Z,96477.13
2023-05-05T06:57:22.234Z,96440.44
2023-05-05T06:59:48.967Z,96406.88
2023-05-05T07:02:15.376Z,96393.94
2023-05-05T07:04:42.991Z,96347.06
2023-05-05T07:07:09.346Z,96341.91
2023-05-05T07:09:36.372Z,96344.47
2023-05-05T07:12:03.503Z,96383.81
2023-05-05T07:14:29.859Z,96399.03
2023-05-05T07:16:56.743Z,96421.47
2023-05-05T07:19:23.542Z,96427.72
2023-05-05T07:21:50.450Z,96431.28
2023-05-05T07:24:16.781Z,96450.09
2023-05-05T07:26:43.390Z,96444.63
2023-05-05T07:29:10.263Z,96432.81
2023-05-05T07:31:36.610Z,96459.09
2023-05-05T07:34:02.983Z,96465.75
2023-05-05T07:36:30.026Z,96467.53
2023-05-05T07:38:56.432Z,96499.97
2023-05-05T07:41:22.798Z,96525.41
2023-05-05T07:43:49.517Z,96535.94
2023-05-05T07:46:16.009Z,96536.31
2023-05-05T07:48:42.424Z,96537.03
2023-05-05T07:51:09.752Z,96526.28
2023-05-05T07:53:36.882Z,96531.84
2023-05-05T07:56:03.461Z,96544.13
2023-05-05T07:58:30.390Z,96551.97
2023-05-05T08:00:56.763Z,96562.97
2023-05-05T08:03:24.713Z,96558.09
2023-05-05T08:05:56.084Z,96574.13
2023-05-05T08:08:26.782Z,96571.66
2023-05-05T08:10:53.377Z,96580.56
2023-05-05T08:13:20.642Z,96580.31
2023-05-05T08:15:47.224Z,96586.00
2023-05-05T08:18:14.192Z,96587.91
2023-05-05T08:20:40.984Z,96584.72
2023-05-05T08:23:07.339Z,96580.53
2023-05-05T08:25:33.692Z,96580.59
2023-05-05T08:28:00.448Z,96583.22
2023-05-05T08:30:26.999Z,96586.84
2023-05-05T08:32:53.453Z,96584.53
2023-05-05T08:35:20.177Z,96575.06
2023-05-05T08:37:46.587Z,96549.19
2023-05-05T08:40:16.605Z,96538.19
2023-05-05T08:42:45.980Z,96555.16
2023-05-05T08:45:12.981Z,96561.84
2023-05-05T08:47:39.670Z,96552.78
2023-05-05T08:50:09.834Z,96556.94
2023-05-05T08:52:43.505Z,96578.69
2023-05-05T08:55:17.913Z,96598.41
2023-05-05T08:57:52.038Z,96611.09
2023-05-05T09:00:20.731Z,96629.66
2023-05-05T09:02:47.919Z,96636.03
2023-05-05T09:05:15.573Z,96622.25
2023-05-05T09:07:43.653Z,96626.25
2023-05-05T09:10:12.100Z,96635.50
2023-05-05T09:12:42.383Z,96647.31
2023-05-05T09:15:11.482Z,96660.75
2023-05-05T09:17:38.880Z,96657.97
2023-05-05T09:20:07.442Z,96657.94
2023-05-05T09:22:54.081Z,96649.66
2023-05-05T09:25:20.794Z,96645.16
2023-05-05T09:27:48.898Z,96632.91
2023-05-05T09:30:17.602Z,96615.19
2023-05-05T09:32:46.075Z,96595.06
2023-05-05T09:35:12.623Z,96516.13
2023-05-05T09:37:39.020Z,96394.78
2023-05-05T09:40:07.671Z,96307.53
2023-05-05T09:42:35.697Z,96256.81
2023-05-05T09:45:02.056Z,96202.38
2023-05-05T09:47:37.999Z,96128.19
2023-05-05T09:50:06.059Z,96038.06
2023-05-05T09:52:32.647Z,95983.13
2023-05-05T09:54:59.565Z,95968.81
2023-05-05T09:57:35.011Z,95917.78
2023-05-05T10:00:04.526Z,95950.38
2023-05-05T10:02:32.736Z,95983.81
2023-05-05T10:05:11.478Z,96009.53
2023-05-05T10:07:39.181Z,96032.16
2023-05-05T10:10:14.420Z,96038.03
2023-05-05T10:12:41.223Z,96048.81
2023-05-05T10:15:09.855Z,95987.91
2023-05-05T10:17:53.976Z,95959.19
2023-05-05T10:20:32.945Z,95899.41
2023-05-05T10:23:02.922Z,95861.78
2023-05-05T10:25:33.658Z,95867.34
2023-05-05T10:28:01.168Z,95913.19
2023-05-05T10:30:32.086Z,95941.59
2023-05-05T10:33:30.062Z,95936.19
2023-05-05T10:36:01.812Z,95905.75
2023-05-05T10:38:31.005Z,95929.50
2023-05-05T10:40:59.367Z,95940.84
2023-05-05T10:43:27.244Z,95950.06
2023-05-05T10:45:54.718Z,95942.00
2023-05-05T10:48:29.736Z,95903.22
2023-05-05T10:51:05.582Z,95879.34
2023-05-05T10:53:41.633Z,95886.66
2023-05-05T10:56:34.189Z,95855.75
2023-05-05T10:59:01.004Z,95818.19
2023-05-05T11:01:35.665Z,95773.41
2023-05-05T11:04:21.991Z,95814.50
2023-05-05T11:07:14.641Z,95812.50
2023-05-05T11:09:57.802Z,95766.53
2023-05-05T11:12:24.608Z,95758.69
2023-05-05T11:15:28.443Z,95738.03
2023-05-05T11:17:56.983Z,95778.25
2023-05-05T11:20:39.895Z,95745.00
2023-05-05T11:23:07.299Z,95717.44
2023-05-05T11:25:40.878Z,95361.75
2023-05-05T11:28:08.988Z,95440.34
2023-05-05T11:30:58.690Z,95432.22
2023-05-05T11:33:29.773Z,95445.59
2023-05-05T11:35:59.288Z,95459.03
2023-05-05T11:38:56.456Z,95410.03
2023-05-05T11:41:35.028Z,95371.63
2023-05-05T11:44:18.692Z,95314.88
2023-05-05T11:46:51.128Z,95341.28
2023-05-05T11:49:28.264Z,95003.09
2023-05-05T11:52:03.937Z,94671.66
2023-05-05T11:54:31.258Z,94442.63
2023-05-05T11:57:01.849Z,94614.50
2023-05-05T11:59:28.175Z,94720.84
2023-05-05T12:01:54.753Z,94964.31
2023-05-05T12:04:21.188Z,94950.97
2023-05-05T12:06:48.915Z,95152.97
2023-05-05T12:09:16.823Z,95255.03
2023-05-05T12:11:54.021Z,95250.97
2023-05-05T12:14:21.821Z,95294.28
2023-05-05T12:17:07.036Z,95184.06
2023-05-05T12:19:33.649Z,95246.38
2023-05-05T12:22:01.166Z,95315.09
2023-05-05T12:24:27.967Z,95284.94
2023-05-05T12:26:54.805Z,95380.50
2023-05-05T12:29:29.287Z,95428.31
2023-05-05T12:31:58.262Z,95492.06
2023-05-05T12:34:24.825Z,95578.97
2023-05-05T12:36:51.452Z,95626.13
2023-05-05T12:39:18.261Z,95664.69
2023-05-05T12:41:44.688Z,95691.03
2023-05-05T12:44:11.062Z,95792.19
2023-05-05T12:46:49.162Z,95818.25
2023-05-05T12:49:16.629Z,95890.56
2023-05-05T12:51:54.645Z,95909.72
2023-05-05T12:54:23.277Z,95860.50
2023-05-05T12:56:49.678Z,95870.81
2023-05-05T12:59:22.733Z,95932.19
2023-05-05T13:01:50.963Z,95926.00
2023-05-05T13:04:18.187Z,95928.75
2023-05-05T13:06:48.834Z,95946.69
2023-05-05T13:09:36.612Z,95942.50
2023-05-05T13:12:04.810Z,95942.66
2023-05-05T13:14:34.949Z,95953.06
2023-05-05T13:17:01.337Z,95946.47
2023-05-05T13:19:27.968Z,95966.75
2023-05-05T13:21:56.762Z,95952.84
2023-05-05T13:24:31.637Z,95955.84
2023-05-05T13:27:09.250Z,95965.59
2023-05-05T13:29:35.620Z,95963.00
2023-05-05T13:32:02.003Z,95953.63
2023-05-05T13:34:28.854Z,95945.31
2023-05-05T13:36:55.332Z,95943.31
2023-05-05T13:39:21.758Z,95942.28
2023-05-05T13:41:48.193Z,95940.28
2023-05-05T13:44:14.630Z,95939.28
2023-05-05T13:46:44.244Z,95936.78
2023-05-05T13:49:11.103Z,95932.84
2023-05-05T13:51:38.921Z,95930.19
2023-05-05T13:54:06.724Z,95942.47
2023-05-05T13:56:34.034Z,95935.75
2023-05-05T13:59:00.877Z,95938.69
2023-05-05T14:01:27.344Z,95925.50
2023-05-05T14:03:55.571Z,95920.69
2023-05-05T14:06:23.526Z,95923.78
2023-05-05T14:08:50.126Z,95928.97
2023-05-05T14:11:17.945Z,95920.38
2023-05-05T14:13:46.339Z,95925.00
2023-05-05T14:16:13.571Z,95905.97
2023-05-05T14:18:40.080Z,95895.63
2023-05-05T14:21:06.480Z,95906.25
2023-05-05T14:23:33.294Z,95893.53
2023-05-05T14:25:59.731Z,95896.47
2023-05-05T14:28:26.347Z,95902.84
2023-05-05T14:30:52.994Z,95906.06
2023-05-05T14:33:19.588Z,95909.88
2023-05-05T14:35:45.930Z,95905.34
2023-05-05T14:38:12.343Z,95895.94
2023-05-05T14:40:38.682Z,95891.63
2023-05-05T14:43:05.000Z,95891.41
2023-05-05T14:45:31.881Z,95876.53
2023-05-05T14:47:58.541Z,95852.59
2023-05-05T14:50:24.939Z,95838.38
2023-05-05T14:52:51.317Z,95828.16
2023-05-05T14:55:18.114Z,95803.91
2023-05-05T14:57:44.470Z,95650.00
2023-05-05T15:00:11.227Z,95605.88
2023-05-05T15:02:37.689Z,95662.53
2023-05-05T15:05:05.063Z,95590.19
2023-05-05T15:07:32.060Z,95527.28
2023-05-05T15:09:58.439Z,95346.25
2023-05-05T15:12:25.904Z,95158.56
2023-05-05T15:14:52.737Z,95021.81
2023-05-05T15:17:19.273Z,94847.31
2023-05-05T15:19:45.742Z,94701.78
2023-05-05T15:22:12.417Z,94565.38
2023-05-05T15:24:38.797Z,94317.50
2023-05-05T15:27:05.197Z,93970.44
2023-05-05T15:29:31.985Z,93760.75
2023-05-05T15:31:58.375Z,93758.38
2023-05-05T15:34:24.809Z,93818.03
2023-05-05T15:36:51.811Z,93933.28
2023-05-05T15:39:18.692Z,94053.84
2023-05-05T15:41:45.119Z,94182.28
2023-05-05T15:44:12.350Z,94300.91
2023-05-05T15:46:39.634Z,94479.69
2023-05-05T15:49:06.495Z,94475.00
2023-05-05T15:51:32.862Z,94461.09
2023-05-05T15:54:00.159Z,94448.28
2023-05-05T15:56:30.003Z,94450.47
2023-05-05T15:58:56.796Z,94448.38
2023-05-05T16:01:23.255Z,94449.63
2023-05-05T16:03:50.038Z,94449.47
2023-05-05T16:06:16.453Z,94463.84
2023-05-05T16:08:42.945Z,94478.78
2023-05-05T16:11:09.973Z,94475.25
2023-05-05T16:13:36.331Z,94482.00
2023-05-05T16:16:03.195Z,94488.66
2023-05-05T16:18:29.879Z,94475.84
2023-05-05T16:20:56.196Z,94430.00
2023-05-05T16:23:22.764Z,94394.22
2023-05-05T16:25:49.518Z,94399.06
2023-05-05T16:28:15.894Z,94431.81
2023-05-05T16:30:43.547Z,94492.88
2023-05-05T16:33:10.241Z,94589.44
2023-05-05T16:35:36.712Z,95207.00
2023-05-05T16:38:03.806Z,95256.00
2023-05-05T16:40:30.180Z,95295.09
2023-05-05T16:42:56.892Z,95327.25
2023-05-05T16:45:24.247Z,95353.53
2023-05-05T16:47:51.397Z,96188.22
2023-05-05T16:50:17.842Z,96277.88
2023-05-05T16:52:44.198Z,96304.47
2023-05-05T16:55:11.272Z,96323.13
2023-05-05T16:57:37.927Z,96363.72
2023-05-05T17:00:06.734Z,96398.34
2023-05-05T17:02:33.693Z,96454.84
2023-05-05T17:05:00.137Z,96485.25
2023-05-05T17:07:27.313Z,96514.50
2023-05-05T17:09:53.668Z,96536.03
2023-05-05T17:12:20.130Z,96578.47
2023-05-05T17:14:46.907Z,96628.41
2023-05-05T17:17:13.954Z,96663.72
2023-05-05T17:19:40.395Z,96671.69
2023-05-05T17:22:06.715Z,96667.56
2023-05-05T17:24:33.499Z,96647.78
2023-05-05T17:26:59.816Z,96503.31
2023-05-05T17:29:26.438Z,96506.81
2023-05-05T17:31:54.062Z,96485.75
2023-05-05T17:34:20.549Z,96506.22
2023-05-05T17:36:46.892Z,96536.00
2023-05-05T17:39:14.024Z,96536.59
2023-05-05T17:41:41.861Z,96540.78
2023-05-05T17:44:08.229Z,96540.09
2023-05-05T17:46:35.181Z,96555.00
2023-05-05T17:49:01.555Z,96556.19
2023-05-05T17:51:28.140Z,96546.06
2023-05-05T17:53:55.044Z,96579.34
2023-05-05T17:56:22.037Z,96587.22
2023-05-05T17:58:48.830Z,96601.59
2023-05-05T18:01:25.862Z,96579.00
2023-05-05T18:03:52.667Z,96508.91
2023-05-05T18:06:19.059Z,96515.63
2023-05-05T18:08:46.040Z,96505.06
2023-05-05T18:11:12.588Z,96525.28
2023-05-05T18:13:39.405Z,96510.41
2023-05-05T18:16:06.888Z,96489.84
2023-05-05T18:18:33.384Z,96473.31
2023-05-05T18:21:00.378Z,96705.44
2023-05-05T18:23:26.931Z,96563.63
2023-05-05T18:25:53.323Z,96532.00
2023-05-05T18:28:21.034Z,96423.09
2023-05-05T18:30:47.353Z,96355.84
2023-05-05T18:33:13.673Z,96098.03
2023-05-05T18:35:40.651Z,95918.28
2023-05-05T18:38:07.038Z,95866.72
2023-05-05T18:40:33.401Z,95818.63
2023-05-05T18:43:00.202Z,95787.97
2023-05-05T18:45:26.550Z,94927.03
2023-05-05T18:47:53.710Z,94897.13
2023-05-05T18:50:20.119Z,94862.69
2023-05-05T18:52:46.482Z,94827.72
2023-05-05T18:55:13.269Z,94830.13
2023-05-05T18:57:39.673Z,94811.44
2023-05-05T19:00:06.773Z,94801.00
2023-05-05T19:02:33.176Z,94789.81
2023-05-05T19:04:59.615Z,94775.41
2023-05-05T19:07:34.864Z,94759.91
2023-05-05T19:10:03.544Z,94704.91
2023-05-05T19:12:29.904Z,94693.19
2023-05-05T19:14:56.273Z,94873.63
2023-05-05T19:17:22.841Z,94829.56
2023-05-05T19:19:49.737Z,94803.69
2023-05-05T19:22:17.333Z,94773.25
2023-05-05T19:24:44.096Z,94768.44
2023-05-05T19:27:15.470Z,94765.00
2023-05-05T19:29:42.703Z,94755.91
2023-05-05T19:32:09.464Z,94751.38
2023-05-05T19:34:36.234Z,94749.50
2023-05-05T19:37:02.569Z,94730.31
2023-05-05T19:39:29.226Z,94742.84
2023-05-05T19:41:56.225Z,94743.09
2023-05-05T19:44:22.734Z,94736.44
2023-05-05T19:46:49.501Z,94735.34
2023-05-05T19:49:16.336Z,94733.22
2023-05-05T19:51:42.829Z,94718.53
2023-05-05T19:54:09.610Z,94710.25
2023-05-05T19:56:36.270Z,94698.03
2023-05-05T19:59:04.923Z,94695.34
2023-05-05T20:01:33.489Z,94681.72
2023-05-05T20:04:00.019Z,94671.88
2023-05-05T20:06:26.912Z,94703.34
2023-05-05T20:08:55.102Z,95513.50
2023-05-05T20:11:21.779Z,96114.22
2023-05-05T20:13:49.639Z,96134.31
2023-05-05T20:16:16.850Z,96143.00
2023-05-05T20:18:43.604Z,96144.66
2023-05-05T20:21:10.498Z,96139.19
2023-05-05T20:23:37.886Z,96137.56
2023-05-05T20:26:04.407Z,96131.53
2023-05-05T20:28:31.595Z,96137.91
2023-05-05T20:30:58.459Z,96128.97
2023-05-05T20:33:24.822Z,96139.41
2023-05-05T20:35:51.143Z,96150.53
2023-05-05T20:38:17.578Z,96165.50
2023-05-05T20:40:43.928Z,96180.22
2023-05-05T20:43:10.261Z,96180.09
2023-05-05T20:45:37.463Z,96174.41
2023-05-05T20:48:05.238Z,96184.16
2023-05-05T20:50:31.827Z,96198.47
2023-05-05T20:52:59.180Z,96201.72
2023-05-05T20:55:25.904Z,96194.03
2023-05-05T20:57:52.245Z,96191.38
2023-05-05T21:00:25.040Z,96202.03
2023-05-05T21:02:51.399Z,96202.88
2023-05-05T21:05:17.999Z,96201.34
2023-05-05T21:07:45.386Z,96210.03
2023-05-05T21:10:11.987Z,96206.03
2023-05-05T21:12:40.212Z,96217.59
2023-05-05T21:15:08.445Z,96236.66
2023-05-05T21:17:35.020Z,96241.84
2023-05-05T21:20:01.529Z,96238.28
2023-05-05T21:22:27.979Z,96238.63
2023-05-05T21:24:54.556Z,96267.19
2023-05-05T21:27:21.076Z,96280.59
2023-05-05T21:29:50.705Z,96273.41
2023-05-05T21:32:17.127Z,96286.34
2023-05-05T21:34:43.585Z,85412.47
2023-05-05T21:37:11.907Z,90554.31
2023-05-05T21:39:38.219Z,90602.91
2023-05-05T21:42:04.638Z,90608.28
2023-05-05T21:44:31.140Z,90594.66
2023-05-05T21:46:57.512Z,90564.28
2023-05-05T21:49:24.326Z,90544.88
2023-05-05T21:51:51.057Z,90540.75
2023-05-05T21:54:17.388Z,90513.44
2023-05-05T21:56:43.723Z,90505.13
2023-05-05T21:59:10.298Z,90464.94
2023-05-05T22:01:36.856Z,90452.44
2023-05-05T22:04:03.540Z,90459.56
2023-05-05T22:06:30.341Z,90447.47
2023-05-05T22:08:56.948Z,90458.81
2023-05-05T22:11:23.593Z,90458.75
2023-05-05T22:13:50.458Z,90460.28
2023-05-05T22:16:19.913Z,90456.41
2023-05-05T22:18:46.711Z,90452.31
2023-05-05T22:21:13.322Z,90455.69
2023-05-05T22:23:41.683Z,90427.00
2023-05-05T22:26:09.355Z,90408.03
2023-05-05T22:28:35.982Z,90414.84
2023-05-05T22:31:02.555Z,90402.69
2023-05-05T22:33:29.420Z,90394.75
2023-05-05T22:35:55.935Z,90388.66
2023-05-05T22:38:22.564Z,90392.00
2023-05-05T22:40:49.293Z,90387.84
2023-05-05T22:43:16.218Z,90405.63
2023-05-05T22:45:43.410Z,90401.84
2023-05-05T22:48:10.121Z,90407.16
2023-05-05T22:50:37.780Z,90432.88
2023-05-05T22:53:04.196Z,90460.03
2023-05-05T22:55:30.850Z,90465.75
2023-05-05T22:57:57.525Z,90514.84
2023-05-05T23:00:24.092Z,90519.31
2023-05-05T23:02:50.610Z,90523.91
2023-05-05T23:05:17.587Z,90501.72
2023-05-05T23:07:43.968Z,90500.53
2023-05-05T23:10:10.672Z,90495.59
2023-05-05T23:12:37.535Z,90472.53
2023-05-05T23:15:04.583Z,90459.72
2023-05-05T23:17:31.078Z,90453.25
2023-05-05T23:19:57.986Z,90431.28
2023-05-05T23:22:24.342Z,90423.75
2023-05-05T23:24:51.008Z,90440.13
2023-05-05T23:27:17.732Z,90416.25
2023-05-05T23:29:44.077Z,90406.06
2023-05-05T23:32:10.582Z,90410.94
2023-05-05T23:34:37.319Z,90414.00
2023-05-05T23:37:05.925Z,90393.19
2023-05-05T23:39:35.414Z,90377.66
2023-05-05T23:42:01.770Z,90367.72
2023-05-05T23:44:28.081Z,90396.50
2023-05-05T23:46:54.998Z,90392.31
2023-05-05T23:49:21.372Z,90404.06
2023-05-05T23:51:47.691Z,90410.91
2023-05-05T23:54:14.408Z,90403.31
2023-05-05T23:56:41.028Z,90400.75
2023-05-05T23:59:07.357Z,90384.06
